Mudah untuk digunakan

vPilot, dan Squawkbox

VATSIM memiliki 3 pilot client yang berbeda. Semuanya memberikan kemudahan yang sama bagi pengguna untuk online ke dalam simulasi VATSIM. Semuanya memiliki panduan yang lengkap untuk membantu Anda menggunakan aplikasi ini.

Radar client yang seperti aslinya

EuroScope & VRC

VATSIM memiliki radar client yang sangat advanced karena mensimulasikan secara nyata bagaimana seorang ATC didunia nyata. Walaupun dikatakan advanced, kedua radar client ini sangat mudah untuk digunakan. Dan hal menarik lainnya, VATSIM menggunakan ATIS dalam bentuk suara!

Dengan VATSIM, Anda dapat belajar lebih banyak tentang aviasi.
Anda juga dapat berdiskusi dengan pencinta aviasi lainnya.

Pengalaman Yang Tidak Terlupakan

Aktifitas Terkini

Tidak ada ATC yang online!

Pilot

Callsign Nama Rute
BOE138Muhammad Haykal WIII (1436616)PHNL-WIII
BOE175Gery Kurniawan Sahabu WIII (1148958)WADD-WAAA
TMC044Daniel Dezulier (1400805)WAMM-WA98
TMC4526Eric Lavorel (1342825)WAMM-WA44
VHR3424Marc-Andre Lalande CYUL (1179262)WAAA-WAMP

*Informasi ini bisa saja tidak mutakhir.

METAR

Nama Bandara - Lokasi (ICAO) METAR
Sultan Hasanuddin - Makassar (WAAA)METAR WAAA 141400Z 11004KT 8000 SCT018 27/26 Q1011|NOSIG=
Ngurah Rai - Denpasar (WADD)METAR WADD 141400Z 23005KT 9999 FEW017CB SCT017 29/25 Q1011|RMK CB TO NW|NOSIG=
Ahmad Yani - Semarang (WAHS)METAR WAHS 141400Z 10002KT 6000 FEW013CB FEW014 25/24 Q1011|RMK CB TO N=
Juanda - Surabaya (WARR)METAR WARR 141400Z 26007KT 7000 FEW020CB 27/24 Q1011|NOSIG=
Soekarno Hatta - Jakarta (WIII)METAR WIII 141400Z 25014KT 8000 BKN020 27/23 Q1012|NOSIG=
Halim Perdanakusuma - Jakarta (WIHH)METAR WIHH 141200Z 25012KT 6000 SCT019 27/23 Q1010|RMK RA TO S=
Kualanamu International Airport - Deli Serdang (WIMM)METAR WIMM 141400Z 05005KT 9999 BKN017 27/24 Q1012|NOSIG=

*METAR didapatkan dari BMKG. Informasi ini bisa saja tidak mutakhir.

VATSIM Indonesia vACC VATSIM South East Asia VATSIM Asia